Te Kowai Exp Station, Queensland

6:26 PM AEST on August 30, 2015 (GMT +1000)
Walkerston | | Change Station
CLOSE
Current Station
Personal Weather Station
Location: Walkerston, QUEENSLAND
Elevation: 105 ft
Nearby Weather Stations

Elev 105 ft 21.16 °S, 149.05 °E | Updated 20 seconds ago

Mostly Cloudy
Mostly Cloudy
69.8 °F
Feels Like 69.8 °F
N
0.0
Wind Variable Wind from ENE
Gusts 0.0 mph

Today
High -- | Low -- °F
--% Chance of Precip.
Yesterday
High -- | Low -- °F
Precip. -- in
6:15 AM 5:53 PM
Full, 100% visible
Pressure 29.98 in
Visibility 6.2 miles
Clouds Mostly Cloudy 6200 ft
Dew Point 64 °F
Humidity 81%
Rainfall 0.01 in
Snow Depth Not available.
UV 0.0 out of 12
Pollen Not available.
Air Quality Not available.
Flu Activity Not available.
METAR YBMK 300800Z AUTO 11007KT 9999 // BKN062 21/19 Q1015
Pressure 29.98 in
Visibility 6.2 miles
Clouds Mostly Cloudy 6200 ft
Dew Point 64 °F
Humidity 81%
Rainfall 0.01 in
Snow Depth Not available.
UV 0.0 out of 12
Pollen Not available.
Air Quality Not available.
Flu Activity Not available.
METAR YBMK 300800Z AUTO 11007KT 9999 // BKN062 21/19 Q1015

10-Day Weather Forecast

×

Almanac

Astronomy

Aug. 30, 2015 Rise Set
Actual Time
Civil Twilight
Nautical Twilight
Astronomical Twilight
Moon
Length of Visible Light
Length of Day
Tomorrow will be .
, % of the Moon is Illuminated

Today's Extremes

Country Highs Country Lows

Community

WunderPhotos

Upload Photos

1,850,909 photos uploaded!

WunderBlogs® & News

Nearby

Air Quality

  Air Quality AQ Index Pollutant
Not available.

Snow Depth

Station Depth Elevation

Earthquake Activity

City Distance Mag. Time & Date
Minimum magnitude displayed is 2.5.

Coastal Water Temperatures

Place Temperature

Stations

Nearby Weather Stations

Station Location Temp. Windchill Dew Point Humidity Wind Precip. Elev Updated Type